sensor_id;sensor_type;location;lat;lon;timestamp;temperature;humidity
44851;DHT22;30583;48.714;9.386;2023-02-13T00:00:31;3.50;75.70
44851;DHT22;30583;48.714;9.386;2023-02-13T00:02:57;3.40;75.80
44851;DHT22;30583;48.714;9.386;2023-02-13T00:05:23;3.30;76.00
44851;DHT22;30583;48.714;9.386;2023-02-13T00:07:48;3.20;76.40
44851;DHT22;30583;48.714;9.386;2023-02-13T00:10:14;3.30;76.40
44851;DHT22;30583;48.714;9.386;2023-02-13T00:12:40;3.30;75.80
44851;DHT22;30583;48.714;9.386;2023-02-13T00:15:06;3.60;75.50
44851;DHT22;30583;48.714;9.386;2023-02-13T00:17:33;3.40;74.90
44851;DHT22;30583;48.714;9.386;2023-02-13T00:19:59;3.40;75.10
44851;DHT22;30583;48.714;9.386;2023-02-13T00:22:24;3.20;75.20
44851;DHT22;30583;48.714;9.386;2023-02-13T00:24:50;3.00;75.60
44851;DHT22;30583;48.714;9.386;2023-02-13T00:27:16;3.20;75.80
44851;DHT22;30583;48.714;9.386;2023-02-13T00:29:41;3.10;76.40
44851;DHT22;30583;48.714;9.386;2023-02-13T00:32:07;3.20;76.10
44851;DHT22;30583;48.714;9.386;2023-02-13T00:34:33;3.20;76.00
44851;DHT22;30583;48.714;9.386;2023-02-13T00:36:58;3.00;76.40
44851;DHT22;30583;48.714;9.386;2023-02-13T00:39:24;2.70;76.90
44851;DHT22;30583;48.714;9.386;2023-02-13T00:41:49;2.90;76.80
44851;DHT22;30583;48.714;9.386;2023-02-13T00:44:15;3.00;76.40
44851;DHT22;30583;48.714;9.386;2023-02-13T00:46:41;3.10;76.20
44851;DHT22;30583;48.714;9.386;2023-02-13T00:49:06;2.90;76.50
44851;DHT22;30583;48.714;9.386;2023-02-13T00:51:32;2.80;77.00
44851;DHT22;30583;48.714;9.386;2023-02-13T00:53:57;2.90;77.20
44851;DHT22;30583;48.714;9.386;2023-02-13T00:56:23;2.90;76.80
44851;DHT22;30583;48.714;9.386;2023-02-13T00:58:49;2.80;77.20
44851;DHT22;30583;48.714;9.386;2023-02-13T01:01:14;2.90;77.30
44851;DHT22;30583;48.714;9.386;2023-02-13T01:03:40;2.90;76.50
44851;DHT22;30583;48.714;9.386;2023-02-13T01:06:06;3.00;75.90
44851;DHT22;30583;48.714;9.386;2023-02-13T01:08:32;2.80;76.40
44851;DHT22;30583;48.714;9.386;2023-02-13T01:10:58;2.80;76.40
44851;DHT22;30583;48.714;9.386;2023-02-13T01:13:24;2.70;76.80
44851;DHT22;30583;48.714;9.386;2023-02-13T01:15:50;2.70;77.00
44851;DHT22;30583;48.714;9.386;2023-02-13T01:18:17;2.80;77.20
44851;DHT22;30583;48.714;9.386;2023-02-13T01:20:45;2.90;76.90
44851;DHT22;30583;48.714;9.386;2023-02-13T01:23:19;2.70;77.40
44851;DHT22;30583;48.714;9.386;2023-02-13T01:25:44;2.70;77.40
44851;DHT22;30583;48.714;9.386;2023-02-13T01:28:10;2.90;76.20
44851;DHT22;30583;48.714;9.386;2023-02-13T01:30:35;3.00;76.10
44851;DHT22;30583;48.714;9.386;2023-02-13T01:33:01;2.80;76.50
44851;DHT22;30583;48.714;9.386;2023-02-13T01:35:27;2.90;76.20
44851;DHT22;30583;48.714;9.386;2023-02-13T01:37:52;2.70;75.90
44851;DHT22;30583;48.714;9.386;2023-02-13T01:40:18;2.60;76.20
44851;DHT22;30583;48.714;9.386;2023-02-13T01:42:44;2.80;75.90
44851;DHT22;30583;48.714;9.386;2023-02-13T01:45:28;2.50;76.50
44851;DHT22;30583;48.714;9.386;2023-02-13T01:48:06;2.70;76.10
44851;DHT22;30583;48.714;9.386;2023-02-13T01:50:46;2.70;76.60
44851;DHT22;30583;48.714;9.386;2023-02-13T01:53:21;2.60;77.00
44851;DHT22;30583;48.714;9.386;2023-02-13T01:55:55;2.90;75.90
44851;DHT22;30583;48.714;9.386;2023-02-13T01:58:26;2.80;75.20
44851;DHT22;30583;48.714;9.386;2023-02-13T02:00:52;2.50;76.30
44851;DHT22;30583;48.714;9.386;2023-02-13T02:03:30;2.60;76.80
44851;DHT22;30583;48.714;9.386;2023-02-13T02:05:59;2.60;76.10
44851;DHT22;30583;48.714;9.386;2023-02-13T02:08:26;2.70;75.20
44851;DHT22;30583;48.714;9.386;2023-02-13T02:10:53;2.70;75.30
44851;DHT22;30583;48.714;9.386;2023-02-13T02:13:20;2.80;75.20
44851;DHT22;30583;48.714;9.386;2023-02-13T02:15:47;2.70;75.40
44851;DHT22;30583;48.714;9.386;2023-02-13T02:18:15;2.50;76.00
44851;DHT22;30583;48.714;9.386;2023-02-13T02:24:07;2.50;75.40
44851;DHT22;30583;48.714;9.386;2023-02-13T02:29:49;2.40;75.60
44851;DHT22;30583;48.714;9.386;2023-02-13T02:32:22;2.70;75.30
44851;DHT22;30583;48.714;9.386;2023-02-13T02:35:15;2.30;75.10
44851;DHT22;30583;48.714;9.386;2023-02-13T02:38:01;2.20;76.10
44851;DHT22;30583;48.714;9.386;2023-02-13T02:40:48;2.40;75.20
44851;DHT22;30583;48.714;9.386;2023-02-13T02:43:40;2.60;74.60
44851;DHT22;30583;48.714;9.386;2023-02-13T02:46:37;2.40;75.10
44851;DHT22;30583;48.714;9.386;2023-02-13T02:49:25;2.20;75.40
44851;DHT22;30583;48.714;9.386;2023-02-13T02:52:47;2.10;76.10
44851;DHT22;30583;48.714;9.386;2023-02-13T02:55:24;2.20;75.50
44851;DHT22;30583;48.714;9.386;2023-02-13T03:00:57;2.30;74.70
44851;DHT22;30583;48.714;9.386;2023-02-13T03:03:42;2.20;74.90
44851;DHT22;30583;48.714;9.386;2023-02-13T03:06:45;2.20;75.10
44851;DHT22;30583;48.714;9.386;2023-02-13T03:09:20;2.20;74.90
44851;DHT22;30583;48.714;9.386;2023-02-13T03:12:07;2.20;75.00
44851;DHT22;30583;48.714;9.386;2023-02-13T03:14:52;2.10;75.60
44851;DHT22;30583;48.714;9.386;2023-02-13T03:17:18;2.10;75.60
44851;DHT22;30583;48.714;9.386;2023-02-13T03:20:34;2.10;75.80
44851;DHT22;30583;48.714;9.386;2023-02-13T03:23:44;2.10;75.60
44851;DHT22;30583;48.714;9.386;2023-02-13T03:26:31;1.90;75.60
44851;DHT22;30583;48.714;9.386;2023-02-13T03:29:37;1.80;75.90
44851;DHT22;30583;48.714;9.386;2023-02-13T03:38:15;1.80;76.00
44851;DHT22;30583;48.714;9.386;2023-02-13T03:40:49;1.80;75.70
44851;DHT22;30583;48.714;9.386;2023-02-13T03:43:57;1.90;75.70
44851;DHT22;30583;48.714;9.386;2023-02-13T03:46:26;1.90;75.70
44851;DHT22;30583;48.714;9.386;2023-02-13T03:48:53;1.50;77.30
44851;DHT22;30583;48.714;9.386;2023-02-13T03:54:21;1.60;76.50
44851;DHT22;30583;48.714;9.386;2023-02-13T03:57:10;1.70;76.60
44851;DHT22;30583;48.714;9.386;2023-02-13T04:00:01;1.70;77.10
44851;DHT22;30583;48.714;9.386;2023-02-13T04:02:30;1.70;77.20
44851;DHT22;30583;48.714;9.386;2023-02-13T04:05:08;1.60;77.30
44851;DHT22;30583;48.714;9.386;2023-02-13T04:07:35;1.60;77.60
44851;DHT22;30583;48.714;9.386;2023-02-13T04:10:13;1.70;77.40
44851;DHT22;30583;48.714;9.386;2023-02-13T04:13:03;1.80;77.30
44851;DHT22;30583;48.714;9.386;2023-02-13T04:15:40;1.70;77.10
44851;DHT22;30583;48.714;9.386;2023-02-13T04:18:14;1.80;77.10
44851;DHT22;30583;48.714;9.386;2023-02-13T04:20:41;1.60;77.80
44851;DHT22;30583;48.714;9.386;2023-02-13T04:23:08;1.90;77.10
44851;DHT22;30583;48.714;9.386;2023-02-13T04:25:36;1.80;76.50
44851;DHT22;30583;48.714;9.386;2023-02-13T04:28:02;1.90;76.30
44851;DHT22;30583;48.714;9.386;2023-02-13T04:30:27;1.90;76.50
44851;DHT22;30583;48.714;9.386;2023-02-13T04:32:53;1.80;76.80
44851;DHT22;30583;48.714;9.386;2023-02-13T04:35:18;1.90;76.50
44851;DHT22;30583;48.714;9.386;2023-02-13T04:37:44;2.00;76.10
44851;DHT22;30583;48.714;9.386;2023-02-13T04:40:10;2.00;76.10
44851;DHT22;30583;48.714;9.386;2023-02-13T04:42:36;2.00;76.00
44851;DHT22;30583;48.714;9.386;2023-02-13T04:45:01;1.90;75.70
44851;DHT22;30583;48.714;9.386;2023-02-13T04:47:27;1.70;76.20
44851;DHT22;30583;48.714;9.386;2023-02-13T04:49:52;1.60;77.10
44851;DHT22;30583;48.714;9.386;2023-02-13T04:52:18;1.60;76.60
44851;DHT22;30583;48.714;9.386;2023-02-13T04:54:43;1.50;76.70
44851;DHT22;30583;48.714;9.386;2023-02-13T04:57:09;1.70;76.50
44851;DHT22;30583;48.714;9.386;2023-02-13T04:59:34;1.40;77.10
44851;DHT22;30583;48.714;9.386;2023-02-13T05:02:00;1.50;76.40
44851;DHT22;30583;48.714;9.386;2023-02-13T05:04:26;1.70;76.00
44851;DHT22;30583;48.714;9.386;2023-02-13T05:06:53;1.70;76.00
44851;DHT22;30583;48.714;9.386;2023-02-13T05:09:19;1.70;75.50
44851;DHT22;30583;48.714;9.386;2023-02-13T05:11:44;1.60;76.20
44851;DHT22;30583;48.714;9.386;2023-02-13T05:14:10;1.60;75.90
44851;DHT22;30583;48.714;9.386;2023-02-13T05:16:36;1.40;76.20
44851;DHT22;30583;48.714;9.386;2023-02-13T05:19:02;1.20;76.90
44851;DHT22;30583;48.714;9.386;2023-02-13T05:21:27;1.20;77.40
44851;DHT22;30583;48.714;9.386;2023-02-13T05:24:11;1.20;77.40
44851;DHT22;30583;48.714;9.386;2023-02-13T05:26:37;1.70;76.40
44851;DHT22;30583;48.714;9.386;2023-02-13T05:29:03;1.70;75.90
44851;DHT22;30583;48.714;9.386;2023-02-13T05:31:47;1.80;74.90
44851;DHT22;30583;48.714;9.386;2023-02-13T05:34:14;1.70;75.50
44851;DHT22;30583;48.714;9.386;2023-02-13T05:36:39;1.70;75.20
44851;DHT22;30583;48.714;9.386;2023-02-13T05:39:05;1.60;75.20
44851;DHT22;30583;48.714;9.386;2023-02-13T05:41:31;1.50;75.60
44851;DHT22;30583;48.714;9.386;2023-02-13T05:43:56;1.60;75.00
44851;DHT22;30583;48.714;9.386;2023-02-13T05:46:22;1.30;75.60
44851;DHT22;30583;48.714;9.386;2023-02-13T05:48:48;1.20;76.60
44851;DHT22;30583;48.714;9.386;2023-02-13T05:51:14;1.10;77.20
44851;DHT22;30583;48.714;9.386;2023-02-13T05:53:39;1.00;77.10
44851;DHT22;30583;48.714;9.386;2023-02-13T05:56:05;1.50;75.80
44851;DHT22;30583;48.714;9.386;2023-02-13T05:58:31;1.50;75.50
44851;DHT22;30583;48.714;9.386;2023-02-13T06:00:58;1.60;75.30
44851;DHT22;30583;48.714;9.386;2023-02-13T06:03:25;1.10;76.00
44851;DHT22;30583;48.714;9.386;2023-02-13T06:05:52;1.40;76.30
44851;DHT22;30583;48.714;9.386;2023-02-13T06:08:18;1.30;76.10
44851;DHT22;30583;48.714;9.386;2023-02-13T06:10:45;1.00;76.60
44851;DHT22;30583;48.714;9.386;2023-02-13T06:13:11;1.50;76.00
44851;DHT22;30583;48.714;9.386;2023-02-13T06:15:37;0.70;77.10
44851;DHT22;30583;48.714;9.386;2023-02-13T06:18:02;0.90;77.20
44851;DHT22;30583;48.714;9.386;2023-02-13T06:20:28;1.20;76.80
44851;DHT22;30583;48.714;9.386;2023-02-13T06:22:54;1.80;80.50
44851;DHT22;30583;48.714;9.386;2023-02-13T06:25:20;2.20;76.90
44851;DHT22;30583;48.714;9.386;2023-02-13T06:27:46;2.00;75.40
44851;DHT22;30583;48.714;9.386;2023-02-13T06:30:12;2.10;75.30
44851;DHT22;30583;48.714;9.386;2023-02-13T06:32:38;2.20;74.10
44851;DHT22;30583;48.714;9.386;2023-02-13T06:35:04;1.90;74.80
44851;DHT22;30583;48.714;9.386;2023-02-13T06:37:29;2.00;74.60
44851;DHT22;30583;48.714;9.386;2023-02-13T06:39:55;2.10;73.50
44851;DHT22;30583;48.714;9.386;2023-02-13T06:42:20;2.00;73.60
44851;DHT22;30583;48.714;9.386;2023-02-13T06:44:46;1.40;75.40
44851;DHT22;30583;48.714;9.386;2023-02-13T06:47:12;1.50;75.50
44851;DHT22;30583;48.714;9.386;2023-02-13T06:49:37;0.90;77.10
44851;DHT22;30583;48.714;9.386;2023-02-13T06:52:03;0.60;78.60
44851;DHT22;30583;48.714;9.386;2023-02-13T06:54:29;0.60;78.10
44851;DHT22;30583;48.714;9.386;2023-02-13T06:56:54;0.80;78.50
44851;DHT22;30583;48.714;9.386;2023-02-13T06:59:20;1.10;78.20
44851;DHT22;30583;48.714;9.386;2023-02-13T07:01:45;1.10;78.20
44851;DHT22;30583;48.714;9.386;2023-02-13T07:04:11;1.30;77.70
44851;DHT22;30583;48.714;9.386;2023-02-13T07:06:36;1.00;78.80
44851;DHT22;30583;48.714;9.386;2023-02-13T07:09:03;1.10;79.10
44851;DHT22;30583;48.714;9.386;2023-02-13T07:11:29;1.00;79.60
44851;DHT22;30583;48.714;9.386;2023-02-13T07:13:54;0.60;80.00
44851;DHT22;30583;48.714;9.386;2023-02-13T07:16:20;0.80;80.60
44851;DHT22;30583;48.714;9.386;2023-02-13T07:18:45;0.90;79.90
44851;DHT22;30583;48.714;9.386;2023-02-13T07:21:11;0.70;80.10
44851;DHT22;30583;48.714;9.386;2023-02-13T07:23:36;0.90;80.50
44851;DHT22;30583;48.714;9.386;2023-02-13T07:26:02;1.20;79.60
44851;DHT22;30583;48.714;9.386;2023-02-13T07:28:28;0.80;79.90
44851;DHT22;30583;48.714;9.386;2023-02-13T07:30:54;1.20;79.10
44851;DHT22;30583;48.714;9.386;2023-02-13T07:33:20;0.70;79.70
44851;DHT22;30583;48.714;9.386;2023-02-13T07:35:47;1.20;79.50
44851;DHT22;30583;48.714;9.386;2023-02-13T07:38:13;1.20;78.40
44851;DHT22;30583;48.714;9.386;2023-02-13T07:40:38;1.00;79.50
44851;DHT22;30583;48.714;9.386;2023-02-13T07:43:04;0.90;79.10
44851;DHT22;30583;48.714;9.386;2023-02-13T07:45:30;1.20;79.80
44851;DHT22;30583;48.714;9.386;2023-02-13T07:47:55;1.00;79.70
44851;DHT22;30583;48.714;9.386;2023-02-13T07:50:21;0.90;79.40
44851;DHT22;30583;48.714;9.386;2023-02-13T07:52:54;1.30;79.50
44851;DHT22;30583;48.714;9.386;2023-02-13T07:55:20;1.30;78.70
44851;DHT22;30583;48.714;9.386;2023-02-13T07:57:45;1.40;78.40
44851;DHT22;30583;48.714;9.386;2023-02-13T08:00:11;1.50;78.30
44851;DHT22;30583;48.714;9.386;2023-02-13T08:02:37;1.70;77.50
44851;DHT22;30583;48.714;9.386;2023-02-13T08:05:03;1.90;77.30
44851;DHT22;30583;48.714;9.386;2023-02-13T08:07:29;1.90;76.90
44851;DHT22;30583;48.714;9.386;2023-02-13T08:09:55;2.00;77.40
44851;DHT22;30583;48.714;9.386;2023-02-13T08:12:40;2.00;77.40
44851;DHT22;30583;48.714;9.386;2023-02-13T08:15:08;1.90;77.50
44851;DHT22;30583;48.714;9.386;2023-02-13T08:17:35;2.20;77.00
44851;DHT22;30583;48.714;9.386;2023-02-13T08:20:01;2.40;76.40
44851;DHT22;30583;48.714;9.386;2023-02-13T08:22:26;2.10;76.90
44851;DHT22;30583;48.714;9.386;2023-02-13T08:24:52;2.00;78.20
44851;DHT22;30583;48.714;9.386;2023-02-13T08:27:17;2.20;78.10
44851;DHT22;30583;48.714;9.386;2023-02-13T08:29:43;2.30;77.90
44851;DHT22;30583;48.714;9.386;2023-02-13T08:32:08;2.30;77.50
44851;DHT22;30583;48.714;9.386;2023-02-13T08:34:34;2.20;77.80
44851;DHT22;30583;48.714;9.386;2023-02-13T08:37:01;2.50;77.30
44851;DHT22;30583;48.714;9.386;2023-02-13T08:39:27;2.70;77.00
44851;DHT22;30583;48.714;9.386;2023-02-13T08:41:52;2.70;77.00
44851;DHT22;30583;48.714;9.386;2023-02-13T08:44:18;2.60;77.20
44851;DHT22;30583;48.714;9.386;2023-02-13T08:46:43;2.80;76.90
44851;DHT22;30583;48.714;9.386;2023-02-13T08:49:09;2.90;76.40
44851;DHT22;30583;48.714;9.386;2023-02-13T08:51:34;2.90;76.60
44851;DHT22;30583;48.714;9.386;2023-02-13T08:54:00;3.10;76.40
44851;DHT22;30583;48.714;9.386;2023-02-13T08:56:26;3.20;76.00
44851;DHT22;30583;48.714;9.386;2023-02-13T08:58:51;3.20;76.20
44851;DHT22;30583;48.714;9.386;2023-02-13T09:01:17;3.00;76.90
44851;DHT22;30583;48.714;9.386;2023-02-13T09:03:42;3.30;76.70
44851;DHT22;30583;48.714;9.386;2023-02-13T09:06:08;3.40;76.30
44851;DHT22;30583;48.714;9.386;2023-02-13T09:08:34;3.40;76.30
44851;DHT22;30583;48.714;9.386;2023-02-13T09:11:01;3.40;77.00
44851;DHT22;30583;48.714;9.386;2023-02-13T09:13:29;3.50;77.00
44851;DHT22;30583;48.714;9.386;2023-02-13T09:16:03;3.80;76.50
44851;DHT22;30583;48.714;9.386;2023-02-13T09:18:28;3.90;76.10
44851;DHT22;30583;48.714;9.386;2023-02-13T09:20:59;4.00;75.80
44851;DHT22;30583;48.714;9.386;2023-02-13T09:23:25;3.80;76.30
44851;DHT22;30583;48.714;9.386;2023-02-13T09:25:51;3.90;77.20
44851;DHT22;30583;48.714;9.386;2023-02-13T09:28:16;4.00;76.10
44851;DHT22;30583;48.714;9.386;2023-02-13T09:30:42;4.10;75.80
44851;DHT22;30583;48.714;9.386;2023-02-13T09:33:10;4.20;76.00
44851;DHT22;30583;48.714;9.386;2023-02-13T09:35:36;4.30;76.20
44851;DHT22;30583;48.714;9.386;2023-02-13T09:38:05;4.60;75.40
44851;DHT22;30583;48.714;9.386;2023-02-13T09:40:35;4.80;74.50
44851;DHT22;30583;48.714;9.386;2023-02-13T09:43:26;4.90;73.40
44851;DHT22;30583;48.714;9.386;2023-02-13T09:45:56;5.10;73.10
44851;DHT22;30583;48.714;9.386;2023-02-13T09:48:32;5.60;73.10
44851;DHT22;30583;48.714;9.386;2023-02-13T09:50:59;5.60;71.60
44851;DHT22;30583;48.714;9.386;2023-02-13T09:53:27;6.30;71.10
44851;DHT22;30583;48.714;9.386;2023-02-13T09:56:09;6.70;69.50
44851;DHT22;30583;48.714;9.386;2023-02-13T10:01:38;6.90;67.30
44851;DHT22;30583;48.714;9.386;2023-02-13T10:04:27;7.20;67.70
44851;DHT22;30583;48.714;9.386;2023-02-13T10:09:52;7.50;66.20
44851;DHT22;30583;48.714;9.386;2023-02-13T10:12:35;8.20;65.40
44851;DHT22;30583;48.714;9.386;2023-02-13T10:15:17;8.10;65.10
44851;DHT22;30583;48.714;9.386;2023-02-13T10:17:49;8.80;62.80
44851;DHT22;30583;48.714;9.386;2023-02-13T10:20:38;9.20;62.00
44851;DHT22;30583;48.714;9.386;2023-02-13T10:23:17;8.70;61.80
44851;DHT22;30583;48.714;9.386;2023-02-13T10:25:53;8.90;60.90
44851;DHT22;30583;48.714;9.386;2023-02-13T10:28:34;9.20;60.80
44851;DHT22;30583;48.714;9.386;2023-02-13T10:31:14;9.70;59.40
44851;DHT22;30583;48.714;9.386;2023-02-13T10:33:52;10.10;58.90
44851;DHT22;30583;48.714;9.386;2023-02-13T10:36:25;10.20;58.40
44851;DHT22;30583;48.714;9.386;2023-02-13T10:44:46;10.10;57.10
44851;DHT22;30583;48.714;9.386;2023-02-13T10:50:24;10.10;58.20
44851;DHT22;30583;48.714;9.386;2023-02-13T10:58:45;11.30;55.20
44851;DHT22;30583;48.714;9.386;2023-02-13T11:01:56;11.70;53.90
44851;DHT22;30583;48.714;9.386;2023-02-13T11:04:25;10.70;54.80
44851;DHT22;30583;48.714;9.386;2023-02-13T11:07:02;11.10;55.80
44851;DHT22;30583;48.714;9.386;2023-02-13T11:09:33;10.70;55.60
44851;DHT22;30583;48.714;9.386;2023-02-13T11:12:25;10.00;57.60
44851;DHT22;30583;48.714;9.386;2023-02-13T11:14:55;10.80;56.80
44851;DHT22;30583;48.714;9.386;2023-02-13T11:17:21;11.70;54.90
44851;DHT22;30583;48.714;9.386;2023-02-13T11:19:49;11.40;53.50
44851;DHT22;30583;48.714;9.386;2023-02-13T11:22:33;10.80;54.50
44851;DHT22;30583;48.714;9.386;2023-02-13T11:25:06;10.70;55.20
44851;DHT22;30583;48.714;9.386;2023-02-13T11:27:35;10.00;56.10
44851;DHT22;30583;48.714;9.386;2023-02-13T11:30:10;9.80;58.00
44851;DHT22;30583;48.714;9.386;2023-02-13T11:33:04;10.30;57.00
44851;DHT22;30583;48.714;9.386;2023-02-13T11:35:34;10.70;55.90
44851;DHT22;30583;48.714;9.386;2023-02-13T11:40:35;10.60;56.70
44851;DHT22;30583;48.714;9.386;2023-02-13T11:43:03;11.60;52.90
44851;DHT22;30583;48.714;9.386;2023-02-13T11:45:30;10.80;55.30
44851;DHT22;30583;48.714;9.386;2023-02-13T11:47:56;10.80;56.00
44851;DHT22;30583;48.714;9.386;2023-02-13T11:50:33;12.10;52.90
44851;DHT22;30583;48.714;9.386;2023-02-13T11:53:21;12.20;50.50
44851;DHT22;30583;48.714;9.386;2023-02-13T11:58:29;12.20;52.20
44851;DHT22;30583;48.714;9.386;2023-02-13T12:01:30;13.20;49.70
44851;DHT22;30583;48.714;9.386;2023-02-13T12:06:34;12.40;51.80
44851;DHT22;30583;48.714;9.386;2023-02-13T12:09:09;11.70;52.70
44851;DHT22;30583;48.714;9.386;2023-02-13T12:11:48;12.20;51.30
44851;DHT22;30583;48.714;9.386;2023-02-13T12:14:23;12.10;52.80
44851;DHT22;30583;48.714;9.386;2023-02-13T12:19:34;13.30;49.80
44851;DHT22;30583;48.714;9.386;2023-02-13T12:22:30;13.90;47.50
44851;DHT22;30583;48.714;9.386;2023-02-13T12:30:54;14.50;47.10
44851;DHT22;30583;48.714;9.386;2023-02-13T12:36:08;12.30;51.10
44851;DHT22;30583;48.714;9.386;2023-02-13T12:38:44;13.20;49.10
44851;DHT22;30583;48.714;9.386;2023-02-13T12:47:21;14.40;47.10
44851;DHT22;30583;48.714;9.386;2023-02-13T12:55:15;13.20;49.40
44851;DHT22;30583;48.714;9.386;2023-02-13T12:57:59;13.70;48.30
44851;DHT22;30583;48.714;9.386;2023-02-13T13:03:42;13.80;48.20
44851;DHT22;30583;48.714;9.386;2023-02-13T13:09:50;12.90;48.90
44851;DHT22;30583;48.714;9.386;2023-02-13T13:12:24;11.80;52.10
44851;DHT22;30583;48.714;9.386;2023-02-13T13:15:16;11.90;51.90
44851;DHT22;30583;48.714;9.386;2023-02-13T13:20:43;12.10;52.00
44851;DHT22;30583;48.714;9.386;2023-02-13T13:23:21;13.00;49.10
44851;DHT22;30583;48.714;9.386;2023-02-13T13:26:17;11.60;53.00
44851;DHT22;30583;48.714;9.386;2023-02-13T13:28:54;11.90;51.80
44851;DHT22;30583;48.714;9.386;2023-02-13T13:31:23;11.90;52.30
44851;DHT22;30583;48.714;9.386;2023-02-13T13:33:51;11.20;53.60
44851;DHT22;30583;48.714;9.386;2023-02-13T13:39:08;12.10;51.70
44851;DHT22;30583;48.714;9.386;2023-02-13T13:44:32;11.50;53.20
44851;DHT22;30583;48.714;9.386;2023-02-13T13:49:57;12.70;50.30
44851;DHT22;30583;48.714;9.386;2023-02-13T13:52:34;12.00;51.60
44851;DHT22;30583;48.714;9.386;2023-02-13T13:55:02;11.60;54.00
44851;DHT22;30583;48.714;9.386;2023-02-13T14:02:39;12.30;51.80
44851;DHT22;30583;48.714;9.386;2023-02-13T14:05:27;12.20;50.90
44851;DHT22;30583;48.714;9.386;2023-02-13T14:07:56;11.00;53.50
44851;DHT22;30583;48.714;9.386;2023-02-13T14:18:22;12.70;50.20
44851;DHT22;30583;48.714;9.386;2023-02-13T14:20:50;12.70;49.90
44851;DHT22;30583;48.714;9.386;2023-02-13T14:28:35;12.20;51.40
44851;DHT22;30583;48.714;9.386;2023-02-13T14:31:17;11.30;54.10
44851;DHT22;30583;48.714;9.386;2023-02-13T14:33:57;10.70;55.10
44851;DHT22;30583;48.714;9.386;2023-02-13T14:36:30;10.90;55.10
44851;DHT22;30583;48.714;9.386;2023-02-13T14:42:20;10.60;56.00
44851;DHT22;30583;48.714;9.386;2023-02-13T14:44:50;10.50;55.90
44851;DHT22;30583;48.714;9.386;2023-02-13T14:49:45;10.90;54.90
44851;DHT22;30583;48.714;9.386;2023-02-13T14:52:24;10.90;55.00
44851;DHT22;30583;48.714;9.386;2023-02-13T14:55:05;11.50;54.10
44851;DHT22;30583;48.714;9.386;2023-02-13T14:57:39;10.90;55.20
44851;DHT22;30583;48.714;9.386;2023-02-13T15:02:40;10.70;55.70
44851;DHT22;30583;48.714;9.386;2023-02-13T15:05:14;11.20;54.60
44851;DHT22;30583;48.714;9.386;2023-02-13T15:07:46;11.30;54.10
44851;DHT22;30583;48.714;9.386;2023-02-13T15:10:35;10.70;54.80
44851;DHT22;30583;48.714;9.386;2023-02-13T15:13:04;10.00;56.90
44851;DHT22;30583;48.714;9.386;2023-02-13T15:15:33;10.20;56.80
44851;DHT22;30583;48.714;9.386;2023-02-13T15:18:08;9.90;57.70
44851;DHT22;30583;48.714;9.386;2023-02-13T15:20:37;10.40;56.60
44851;DHT22;30583;48.714;9.386;2023-02-13T15:23:05;10.00;58.10
44851;DHT22;30583;48.714;9.386;2023-02-13T15:25:40;11.00;54.90
44851;DHT22;30583;48.714;9.386;2023-02-13T15:28:14;10.00;57.60
44851;DHT22;30583;48.714;9.386;2023-02-13T15:31:01;9.70;58.30
44851;DHT22;30583;48.714;9.386;2023-02-13T15:33:43;9.60;58.90
44851;DHT22;30583;48.714;9.386;2023-02-13T15:36:18;10.20;57.30
44851;DHT22;30583;48.714;9.386;2023-02-13T15:38:44;9.50;58.20
44851;DHT22;30583;48.714;9.386;2023-02-13T15:41:13;9.20;60.10
44851;DHT22;30583;48.714;9.386;2023-02-13T15:43:43;9.30;60.00
44851;DHT22;30583;48.714;9.386;2023-02-13T15:46:20;8.80;60.70
44851;DHT22;30583;48.714;9.386;2023-02-13T15:48:46;9.00;60.30
44851;DHT22;30583;48.714;9.386;2023-02-13T15:51:23;9.40;59.10
44851;DHT22;30583;48.714;9.386;2023-02-13T15:53:57;8.70;61.00
44851;DHT22;30583;48.714;9.386;2023-02-13T15:56:23;8.40;62.40
44851;DHT22;30583;48.714;9.386;2023-02-13T15:58:50;8.60;62.30
44851;DHT22;30583;48.714;9.386;2023-02-13T16:01:17;8.20;63.00
44851;DHT22;30583;48.714;9.386;2023-02-13T16:03:46;8.30;62.50
44851;DHT22;30583;48.714;9.386;2023-02-13T16:06:14;7.30;65.50
44851;DHT22;30583;48.714;9.386;2023-02-13T16:08:45;7.40;65.60
44851;DHT22;30583;48.714;9.386;2023-02-13T16:14:02;6.90;67.50
44851;DHT22;30583;48.714;9.386;2023-02-13T16:16:54;7.30;66.60
44851;DHT22;30583;48.714;9.386;2023-02-13T16:19:30;7.50;65.40
44851;DHT22;30583;48.714;9.386;2023-02-13T16:24:44;7.20;66.40
44851;DHT22;30583;48.714;9.386;2023-02-13T16:27:13;6.90;67.90
44851;DHT22;30583;48.714;9.386;2023-02-13T16:29:53;6.80;67.90
44851;DHT22;30583;48.714;9.386;2023-02-13T16:32:30;6.80;67.50
44851;DHT22;30583;48.714;9.386;2023-02-13T16:35:23;7.10;66.70
44851;DHT22;30583;48.714;9.386;2023-02-13T16:37:54;6.70;67.90
44851;DHT22;30583;48.714;9.386;2023-02-13T16:40:34;6.70;68.20
44851;DHT22;30583;48.714;9.386;2023-02-13T16:51:33;6.40;69.00
44851;DHT22;30583;48.714;9.386;2023-02-13T16:54:02;6.20;69.20
44851;DHT22;30583;48.714;9.386;2023-02-13T16:56:39;6.30;69.40
44851;DHT22;30583;48.714;9.386;2023-02-13T17:05:31;5.60;70.70
44851;DHT22;30583;48.714;9.386;2023-02-13T17:07:45;6.30;69.30
44851;DHT22;30583;48.714;9.386;2023-02-13T17:10:20;6.10;69.90
44851;DHT22;30583;48.714;9.386;2023-02-13T17:12:46;5.80;69.90
44851;DHT22;30583;48.714;9.386;2023-02-13T17:15:18;5.70;70.90
44851;DHT22;30583;48.714;9.386;2023-02-13T17:17:45;5.70;70.60
44851;DHT22;30583;48.714;9.386;2023-02-13T17:20:19;5.40;71.10
44851;DHT22;30583;48.714;9.386;2023-02-13T17:22:47;5.50;71.80
44851;DHT22;30583;48.714;9.386;2023-02-13T17:25:23;5.40;71.80
44851;DHT22;30583;48.714;9.386;2023-02-13T17:27:50;5.20;72.00
44851;DHT22;30583;48.714;9.386;2023-02-13T17:30:19;4.70;74.20
44851;DHT22;30583;48.714;9.386;2023-02-13T17:32:46;5.00;73.20
44851;DHT22;30583;48.714;9.386;2023-02-13T17:35:12;5.30;72.20
44851;DHT22;30583;48.714;9.386;2023-02-13T17:37:40;5.50;71.40
44851;DHT22;30583;48.714;9.386;2023-02-13T17:40:08;5.60;71.00
44851;DHT22;30583;48.714;9.386;2023-02-13T17:42:34;5.00;72.70
44851;DHT22;30583;48.714;9.386;2023-02-13T17:45:00;4.80;73.80
44851;DHT22;30583;48.714;9.386;2023-02-13T17:47:26;4.90;73.30
44851;DHT22;30583;48.714;9.386;2023-02-13T17:49:52;4.60;74.30
44851;DHT22;30583;48.714;9.386;2023-02-13T17:52:20;4.40;75.10
44851;DHT22;30583;48.714;9.386;2023-02-13T17:54:47;4.80;74.00
44851;DHT22;30583;48.714;9.386;2023-02-13T17:57:14;4.60;74.10
44851;DHT22;30583;48.714;9.386;2023-02-13T17:59:41;4.50;74.60
44851;DHT22;30583;48.714;9.386;2023-02-13T18:02:16;4.90;73.10
44851;DHT22;30583;48.714;9.386;2023-02-13T18:04:42;4.50;74.10
44851;DHT22;30583;48.714;9.386;2023-02-13T18:07:10;4.70;74.00
44851;DHT22;30583;48.714;9.386;2023-02-13T18:09:39;4.60;75.00
44851;DHT22;30583;48.714;9.386;2023-02-13T18:12:06;4.30;75.00
44851;DHT22;30583;48.714;9.386;2023-02-13T18:14:33;4.10;75.90
44851;DHT22;30583;48.714;9.386;2023-02-13T18:16:59;4.20;75.60
44851;DHT22;30583;48.714;9.386;2023-02-13T18:19:25;4.20;75.50
44851;DHT22;30583;48.714;9.386;2023-02-13T18:21:51;4.20;75.70